Time;durP1;ratioP1;P1;durP2;ratioP2;P2;SDS_P1;SDS_P2;PMS_P1;PMS_P2;Temp;Humidity;BMP_temperature;BMP_pressure;BME280_temperature;BME280_humidity;BME280_pressure;Samples;Min_cycle;Max_cycle;Signal;HPM_P1;HPM_P2
2022/06/16 00:01:59;;;;;;;;;;;19.20;99.90;;;;;;5051639;28;19924;-69
2022/06/16 00:04:26;;;;;;;;;;;19.00;99.90;;;;;;5051685;28;19931;-69
2022/06/16 00:06:55;;;;;;;;;;;19.00;99.90;;;;;;5051535;28;19925;-69
2022/06/16 00:09:22;;;;;;;;;;;18.80;99.90;;;;;;5051554;28;19931;-70
2022/06/16 00:11:50;;;;;;;;;;;18.60;99.90;;;;;;5051619;28;20389;-70
2022/06/16 00:14:17;;;;;;;;;;;18.50;99.90;;;;;;5051632;28;19929;-70
2022/06/16 00:16:44;;;;;;;;;;;18.60;99.90;;;;;;5051307;28;19925;-70
2022/06/16 00:19:11;;;;;;;;;;;18.70;99.90;;;;;;5055821;28;19925;-69
2022/06/16 00:21:38;;;;;;;;;;;18.50;99.90;;;;;;5055523;28;20339;-70
2022/06/16 00:24:05;;;;;;;;;;;18.50;99.90;;;;;;5055470;28;20389;-70
2022/06/16 00:26:32;;;;;;;;;;;18.60;99.90;;;;;;5055304;28;20013;-69
2022/06/16 00:29:00;;;;;;;;;;;18.50;99.90;;;;;;5055148;28;20312;-70
2022/06/16 00:31:27;;;;;;;;;;;18.30;99.90;;;;;;5055356;28;20458;-69
2022/06/16 00:33:54;;;;;;;;;;;18.40;99.90;;;;;;5055407;28;19931;-70
2022/06/16 00:36:21;;;;;;;;;;;18.50;99.90;;;;;;5054960;28;20347;-69
2022/06/16 00:38:48;;;;;;;;;;;18.50;99.90;;;;;;5055133;28;19925;-68
2022/06/16 00:41:14;;;;;;;;;;;18.40;99.90;;;;;;5055154;28;19925;-68
2022/06/16 00:43:41;;;;;;;;;;;18.60;99.90;;;;;;5055390;28;20270;-70
2022/06/16 00:46:17;;;;;;;;;;;18.50;99.90;;;;;;5055017;28;19929;-70
2022/06/16 00:48:47;;;;;;;;;;;18.30;99.90;;;;;;5054974;28;20407;-68
2022/06/16 00:51:15;;;;;;;;;;;18.60;99.90;;;;;;5054942;28;20282;-69
2022/06/16 00:53:43;;;;;;;;;;;18.70;99.90;;;;;;5055247;28;19931;-70
2022/06/16 00:56:11;;;;;;;;;;;18.60;99.90;;;;;;5054654;28;20294;-69
2022/06/16 00:58:40;;;;;;;;;;;18.60;99.90;;;;;;5054718;28;19928;-69
2022/06/16 01:01:08;;;;;;;;;;;18.80;99.90;;;;;;5054813;28;19979;-68
2022/06/16 01:06:22;;;;;;;;;;;18.40;99.90;;;;;;5054489;28;20031;-67
2022/06/16 01:08:51;;;;;;;;;;;18.40;99.90;;;;;;5054331;28;19925;-67
2022/06/16 01:14:07;;;;;;;;;;;18.20;99.90;;;;;;5053651;28;20027;-70
2022/06/16 01:16:37;;;;;;;;;;;18.30;99.90;;;;;;5054246;28;19925;-69
2022/06/16 01:19:09;;;;;;;;;;;18.10;99.90;;;;;;5054236;28;19970;-70
2022/06/16 01:21:39;;;;;;;;;;;18.10;99.90;;;;;;5054435;28;20290;-70
2022/06/16 01:24:25;;;;;;;;;;;17.80;99.90;;;;;;5054283;28;19929;-70
2022/06/16 01:27:03;;;;;;;;;;;17.60;99.90;;;;;;5054133;28;19924;-68
2022/06/16 01:29:34;;;;;;;;;;;17.70;99.90;;;;;;5053354;28;19928;-67
2022/06/16 01:32:05;;;;;;;;;;;17.60;99.90;;;;;;5054202;28;19979;-68
2022/06/16 01:34:35;;;;;;;;;;;17.30;99.90;;;;;;5054061;28;19924;-67
2022/06/16 01:37:04;;;;;;;;;;;17.20;99.90;;;;;;5054038;28;19931;-67
2022/06/16 01:39:34;;;;;;;;;;;17.20;99.90;;;;;;5053941;28;19925;-70
2022/06/16 01:42:03;;;;;;;;;;;17.20;99.90;;;;;;5053937;28;19932;-69
2022/06/16 01:44:33;;;;;;;;;;;17.20;99.90;;;;;;5053971;28;19925;-68
2022/06/16 01:47:03;;;;;;;;;;;17.30;99.90;;;;;;5053593;28;20377;-67
2022/06/16 01:49:31;;;;;;;;;;;17.30;99.90;;;;;;5053946;28;19925;-67
2022/06/16 01:51:59;;;;;;;;;;;17.20;99.90;;;;;;5053790;28;19925;-68
2022/06/16 01:54:28;;;;;;;;;;;17.30;99.90;;;;;;5053728;28;19925;-67
2022/06/16 01:56:58;;;;;;;;;;;17.30;99.90;;;;;;5053560;28;19924;-68
2022/06/16 01:59:27;;;;;;;;;;;17.10;99.90;;;;;;5053716;28;20392;-68
2022/06/16 02:01:56;;;;;;;;;;;17.00;99.90;;;;;;5054006;28;19931;-70
2022/06/16 02:04:26;;;;;;;;;;;16.90;99.90;;;;;;5053595;28;19932;-67
2022/06/16 02:06:55;;;;;;;;;;;16.90;99.90;;;;;;5053438;28;20296;-67
2022/06/16 02:09:27;;;;;;;;;;;17.00;99.90;;;;;;5053368;28;19924;-68
2022/06/16 02:11:56;;;;;;;;;;;17.00;99.90;;;;;;5053467;28;19925;-67
2022/06/16 02:14:25;;;;;;;;;;;17.00;99.90;;;;;;5053313;28;19932;-68
2022/06/16 02:16:52;;;;;;;;;;;17.00;99.90;;;;;;5053155;28;20377;-68
2022/06/16 02:19:20;;;;;;;;;;;17.00;99.90;;;;;;5053098;28;19926;-68
2022/06/16 02:21:49;;;;;;;;;;;16.80;99.90;;;;;;5053215;28;19933;-70
2022/06/16 02:24:18;;;;;;;;;;;16.90;99.90;;;;;;5053152;28;19924;-69
2022/06/16 02:26:45;;;;;;;;;;;16.80;99.90;;;;;;5053025;28;19924;-69
2022/06/16 02:29:23;;;;;;;;;;;16.70;99.90;;;;;;5053058;28;19925;-68
2022/06/16 02:31:53;;;;;;;;;;;16.60;99.90;;;;;;5053197;28;19924;-69
2022/06/16 02:34:24;;;;;;;;;;;16.70;99.90;;;;;;5053369;28;20277;-67
2022/06/16 02:37:01;;;;;;;;;;;16.80;99.90;;;;;;5053049;28;20250;-69
2022/06/16 02:39:36;;;;;;;;;;;16.70;99.90;;;;;;5052879;28;19929;-68
2022/06/16 02:42:13;;;;;;;;;;;16.60;99.90;;;;;;5052060;28;19932;-67
2022/06/16 02:44:43;;;;;;;;;;;16.70;99.90;;;;;;5052922;28;19925;-68
2022/06/16 02:47:13;;;;;;;;;;;16.40;99.90;;;;;;5052890;28;19971;-68
2022/06/16 02:49:45;;;;;;;;;;;16.30;99.90;;;;;;5052683;28;19931;-68
2022/06/16 02:52:18;;;;;;;;;;;16.30;99.90;;;;;;5052701;28;19971;-69
2022/06/16 02:54:52;;;;;;;;;;;16.20;99.90;;;;;;5052539;28;19935;-70
2022/06/16 02:57:22;;;;;;;;;;;16.10;99.90;;;;;;5052498;28;19978;-69
2022/06/16 02:59:50;;;;;;;;;;;16.20;99.90;;;;;;5052449;28;19929;-68
2022/06/16 03:02:18;;;;;;;;;;;16.20;99.90;;;;;;5052591;28;19932;-68
2022/06/16 03:04:53;;;;;;;;;;;16.20;99.90;;;;;;5051980;28;19929;-69
2022/06/16 03:07:22;;;;;;;;;;;16.10;99.90;;;;;;5052503;28;19925;-67
2022/06/16 03:09:48;;;;;;;;;;;16.10;99.90;;;;;;5052376;28;20316;-67
2022/06/16 03:12:16;;;;;;;;;;;16.10;99.90;;;;;;5052396;28;19928;-68
2022/06/16 03:14:43;;;;;;;;;;;16.10;99.90;;;;;;5052594;28;20363;-67
2022/06/16 03:17:11;;;;;;;;;;;16.00;99.90;;;;;;5052087;28;20430;-68
2022/06/16 03:19:38;;;;;;;;;;;15.90;99.90;;;;;;5052097;28;20364;-68
2022/06/16 03:22:05;;;;;;;;;;;15.90;99.90;;;;;;5052241;28;19971;-68
2022/06/16 03:24:34;;;;;;;;;;;15.90;99.90;;;;;;5052153;28;19979;-67
2022/06/16 03:27:00;;;;;;;;;;;16.00;99.90;;;;;;5052044;28;20038;-67
2022/06/16 03:29:27;;;;;;;;;;;16.00;99.90;;;;;;5051784;28;20328;-67
2022/06/16 03:31:54;;;;;;;;;;;15.90;99.90;;;;;;5052039;28;19971;-67
2022/06/16 03:34:22;;;;;;;;;;;15.80;99.90;;;;;;5052227;28;19924;-67
2022/06/16 03:36:49;;;;;;;;;;;15.80;99.90;;;;;;5051893;28;19978;-68
2022/06/16 03:39:16;;;;;;;;;;;15.80;99.90;;;;;;5051763;28;19937;-67
2022/06/16 03:41:44;;;;;;;;;;;16.20;99.90;;;;;;5051886;28;19974;-70
2022/06/16 03:44:11;;;;;;;;;;;16.20;99.90;;;;;;5051984;28;19986;-70
2022/06/16 03:46:38;;;;;;;;;;;16.20;99.90;;;;;;5051469;28;19925;-70
2022/06/16 03:49:04;;;;;;;;;;;16.10;99.90;;;;;;5052009;28;19928;-69
2022/06/16 03:51:31;;;;;;;;;;;16.30;99.90;;;;;;5051712;28;19924;-71
2022/06/16 03:53:58;;;;;;;;;;;16.20;99.90;;;;;;5051652;28;19975;-69
2022/06/16 03:56:25;;;;;;;;;;;16.20;99.90;;;;;;5051649;28;19929;-67
2022/06/16 03:58:54;;;;;;;;;;;16.20;99.90;;;;;;5051716;28;19932;-67
2022/06/16 04:01:21;;;;;;;;;;;16.20;99.90;;;;;;5051880;28;19925;-67
2022/06/16 04:04:03;;;;;;;;;;;16.30;99.90;;;;;;5051861;28;19925;-70
2022/06/16 04:06:30;;;;;;;;;;;16.30;99.90;;;;;;5051577;28;19978;-67
2022/06/16 04:08:57;;;;;;;;;;;16.20;99.90;;;;;;5051475;28;19924;-70
2022/06/16 04:11:30;;;;;;;;;;;16.30;99.90;;;;;;5051903;28;19925;-69
2022/06/16 04:14:02;;;;;;;;;;;16.40;99.90;;;;;;5051664;28;19932;-69
2022/06/16 04:16:33;;;;;;;;;;;16.40;99.90;;;;;;5051574;28;19960;-70
2022/06/16 04:19:00;;;;;;;;;;;16.50;99.90;;;;;;5051529;28;19987;-69
2022/06/16 04:21:27;;;;;;;;;;;16.60;99.90;;;;;;5051573;28;20290;-69
2022/06/16 04:23:55;;;;;;;;;;;16.80;99.90;;;;;;5051435;28;20938;-70
2022/06/16 04:26:22;;;;;;;;;;;17.00;99.90;;;;;;5051364;28;19978;-69
2022/06/16 04:28:48;;;;;;;;;;;16.90;99.90;;;;;;5051381;28;19929;-70
2022/06/16 04:31:17;;;;;;;;;;;17.00;99.90;;;;;;5051259;28;19970;-69
2022/06/16 04:33:43;;;;;;;;;;;17.00;99.90;;;;;;5051574;28;20385;-70
2022/06/16 04:36:11;;;;;;;;;;;17.00;99.90;;;;;;5051161;28;19929;-67
2022/06/16 04:38:38;;;;;;;;;;;17.20;99.90;;;;;;5051455;28;19925;-67
2022/06/16 04:41:04;;;;;;;;;;;17.20;99.90;;;;;;5051508;28;19931;-67
2022/06/16 04:43:32;;;;;;;;;;;17.10;99.90;;;;;;5051624;28;19924;-69
2022/06/16 04:46:00;;;;;;;;;;;17.10;99.90;;;;;;5051392;28;19929;-67
2022/06/16 04:48:28;;;;;;;;;;;17.10;99.90;;;;;;5051202;28;19979;-67
2022/06/16 04:50:55;;;;;;;;;;;17.20;99.90;;;;;;5050952;28;19928;-69
2022/06/16 04:53:22;;;;;;;;;;;17.20;99.90;;;;;;5051373;28;19994;-69
2022/06/16 04:55:55;;;;;;;;;;;17.20;99.90;;;;;;5050915;28;20304;-69
2022/06/16 04:58:22;;;;;;;;;;;17.20;99.90;;;;;;5051171;28;19924;-69
2022/06/16 05:00:49;;;;;;;;;;;17.10;99.90;;;;;;5050908;28;20359;-69
2022/06/16 05:03:16;;;;;;;;;;;17.20;99.90;;;;;;5050992;28;19928;-67
2022/06/16 05:05:45;;;;;;;;;;;17.30;99.90;;;;;;5053978;28;19979;-67
2022/06/16 05:08:11;;;;;;;;;;;17.30;99.90;;;;;;5054619;28;19925;-67
2022/06/16 05:10:38;;;;;;;;;;;17.50;99.90;;;;;;5054321;28;20389;-67
2022/06/16 05:13:05;;;;;;;;;;;17.40;99.90;;;;;;5054621;28;20348;-67
2022/06/16 05:15:32;;;;;;;;;;;17.50;99.90;;;;;;5054237;28;19925;-67
2022/06/16 05:17:58;;;;;;;;;;;17.50;99.90;;;;;;5054329;28;19932;-67
2022/06/16 05:20:25;;;;;;;;;;;17.70;99.90;;;;;;5054269;28;19940;-67
2022/06/16 05:22:53;;;;;;;;;;;18.00;99.90;;;;;;5054439;28;19924;-69
2022/06/16 05:25:20;;;;;;;;;;;18.00;99.90;;;;;;5054063;28;19925;-69
2022/06/16 05:27:47;;;;;;;;;;;18.10;99.90;;;;;;5054228;28;19925;-67
2022/06/16 05:30:14;;;;;;;;;;;18.00;99.90;;;;;;5053955;28;19924;-69
2022/06/16 05:32:41;;;;;;;;;;;17.80;99.90;;;;;;5054097;28;19925;-68
2022/06/16 05:35:08;;;;;;;;;;;17.80;99.90;;;;;;5053928;28;20002;-69
2022/06/16 05:37:35;;;;;;;;;;;17.80;99.90;;;;;;5054109;28;19925;-67
2022/06/16 05:40:04;;;;;;;;;;;17.80;99.90;;;;;;5053898;28;20023;-67
2022/06/16 05:42:31;;;;;;;;;;;17.90;99.90;;;;;;5054045;28;20012;-67
2022/06/16 05:44:58;;;;;;;;;;;18.00;99.90;;;;;;5057156;22;20349;-71
2022/06/16 05:47:24;;;;;;;;;;;18.10;99.90;;;;;;5034410;28;20042;-71
2022/06/16 05:49:51;;;;;;;;;;;18.10;99.90;;;;;;5034022;28;19948;-74
2022/06/16 05:52:19;;;;;;;;;;;18.20;99.90;;;;;;5033837;28;20336;-72
2022/06/16 05:54:46;;;;;;;;;;;18.20;99.90;;;;;;5033882;28;20324;-71
2022/06/16 05:57:14;;;;;;;;;;;18.10;99.90;;;;;;5033957;28;20269;-72
2022/06/16 05:59:41;;;;;;;;;;;18.20;99.90;;;;;;5033679;28;19929;-72
2022/06/16 06:02:13;;;;;;;;;;;18.50;99.90;;;;;;5033996;28;19925;-72
2022/06/16 06:04:40;;;;;;;;;;;18.70;99.90;;;;;;5033697;28;19926;-72
2022/06/16 06:07:07;;;;;;;;;;;18.90;99.90;;;;;;5034495;28;19925;-72
2022/06/16 06:18:00;;;;;;;;;;;19.50;99.90;;;;;;5033641;28;19928;-72
2022/06/16 06:20:27;;;;;;;;;;;19.70;99.90;;;;;;5033380;28;20325;-72
2022/06/16 06:22:53;;;;;;;;;;;19.90;99.90;;;;;;5033432;28;19980;-72
2022/06/16 06:25:20;;;;;;;;;;;20.20;99.90;;;;;;5033357;28;19999;-72
2022/06/16 06:27:48;;;;;;;;;;;20.50;99.90;;;;;;5033200;28;19932;-74
2022/06/16 06:30:17;;;;;;;;;;;20.70;99.90;;;;;;5033089;28;19925;-75
2022/06/16 06:32:43;;;;;;;;;;;20.70;99.90;;;;;;5033138;28;19929;-73
2022/06/16 06:35:11;;;;;;;;;;;20.80;99.90;;;;;;5032908;28;19929;-73
2022/06/16 06:37:37;;;;;;;;;;;21.10;99.90;;;;;;5033136;28;19944;-74
2022/06/16 06:40:05;;;;;;;;;;;21.20;99.90;;;;;;5032772;28;19925;-73
2022/06/16 06:42:32;;;;;;;;;;;21.50;99.90;;;;;;5032785;28;19940;-74
2022/06/16 06:45:02;;;;;;;;;;;21.60;99.90;;;;;;5032504;28;19925;-74
2022/06/16 06:47:30;;;;;;;;;;;21.70;99.90;;;;;;5032697;28;19972;-74
2022/06/16 06:49:57;;;;;;;;;;;22.00;99.90;;;;;;5032600;28;19945;-74
2022/06/16 06:52:24;;;;;;;;;;;22.00;99.90;;;;;;5032643;28;19979;-78
2022/06/16 06:54:50;;;;;;;;;;;22.00;99.90;;;;;;5032362;28;19929;-75
2022/06/16 06:57:19;;;;;;;;;;;21.90;99.90;;;;;;5032531;28;19925;-74
2022/06/16 06:59:46;;;;;;;;;;;22.10;99.90;;;;;;5032401;28;19936;-79
2022/06/16 07:02:15;;;;;;;;;;;22.20;99.90;;;;;;5032569;28;19925;-74
2022/06/16 07:04:42;;;;;;;;;;;22.20;99.90;;;;;;5032365;28;20036;-76
2022/06/16 07:07:09;;;;;;;;;;;22.00;99.90;;;;;;5032280;28;19952;-77
2022/06/16 07:09:36;;;;;;;;;;;22.20;99.90;;;;;;5032256;28;19975;-74
2022/06/16 07:12:03;;;;;;;;;;;22.10;99.60;;;;;;5032295;28;19979;-76
2022/06/16 07:14:31;;;;;;;;;;;22.20;99.90;;;;;;5032342;28;19979;-74
2022/06/16 07:16:58;;;;;;;;;;;22.10;99.50;;;;;;5032172;28;20381;-74
2022/06/16 07:19:26;;;;;;;;;;;22.10;99.50;;;;;;5032173;28;19925;-74
2022/06/16 07:21:53;;;;;;;;;;;22.20;98.50;;;;;;5032317;28;19925;-74
2022/06/16 07:24:20;;;;;;;;;;;22.50;98.60;;;;;;5032158;28;19929;-79
2022/06/16 07:26:46;;;;;;;;;;;23.00;98.90;;;;;;5031610;28;20324;-75
2022/06/16 07:29:13;;;;;;;;;;;23.00;98.60;;;;;;5032032;28;19957;-75
2022/06/16 07:31:40;;;;;;;;;;;23.60;98.50;;;;;;5032033;28;19925;-74
2022/06/16 07:34:07;;;;;;;;;;;23.60;98.10;;;;;;5032049;28;19925;-75
2022/06/16 07:36:35;;;;;;;;;;;23.60;98.40;;;;;;5031687;28;20059;-75
2022/06/16 07:39:02;;;;;;;;;;;23.80;98.40;;;;;;5031834;28;19929;-75
2022/06/16 07:41:37;;;;;;;;;;;23.80;98.40;;;;;;5031953;28;20392;-74
2022/06/16 07:44:05;;;;;;;;;;;24.00;98.60;;;;;;5031685;28;20011;-75
2022/06/16 07:46:32;;;;;;;;;;;24.20;98.50;;;;;;5031969;28;19983;-75
2022/06/16 07:48:59;;;;;;;;;;;24.20;98.70;;;;;;5031654;28;19971;-74
2022/06/16 07:51:26;;;;;;;;;;;24.30;98.50;;;;;;5031768;28;19926;-79
2022/06/16 07:53:54;;;;;;;;;;;24.50;98.00;;;;;;5031806;28;19971;-75
2022/06/16 07:56:21;;;;;;;;;;;24.30;98.40;;;;;;5031465;28;19979;-75
2022/06/16 07:58:48;;;;;;;;;;;24.20;98.70;;;;;;5031676;28;19932;-75
2022/06/16 08:01:15;;;;;;;;;;;24.90;97.60;;;;;;5031511;28;20438;-77
2022/06/16 08:03:42;;;;;;;;;;;25.10;96.60;;;;;;5031727;28;19999;-75
2022/06/16 08:06:10;;;;;;;;;;;25.30;96.70;;;;;;5031426;28;19933;-74
2022/06/16 08:08:37;;;;;;;;;;;25.70;96.30;;;;;;5031566;28;19925;-75
2022/06/16 08:11:05;;;;;;;;;;;26.00;96.10;;;;;;5031409;28;19979;-75
2022/06/16 08:13:32;;;;;;;;;;;25.60;95.90;;;;;;5031593;28;19929;-75
2022/06/16 08:15:59;;;;;;;;;;;25.70;95.50;;;;;;5031372;28;19979;-74
2022/06/16 08:18:26;;;;;;;;;;;25.90;94.90;;;;;;5031411;28;19983;-76
2022/06/16 08:20:53;;;;;;;;;;;26.30;94.30;;;;;;5031356;28;19932;-74
2022/06/16 08:23:20;;;;;;;;;;;26.40;94.30;;;;;;5031413;28;19925;-74
2022/06/16 08:25:48;;;;;;;;;;;26.40;94.40;;;;;;5031149;28;19971;-74
2022/06/16 08:28:17;;;;;;;;;;;26.40;94.00;;;;;;5031385;28;19948;-76
2022/06/16 08:30:45;;;;;;;;;;;26.50;94.10;;;;;;5031219;28;19933;-75
2022/06/16 08:33:14;;;;;;;;;;;26.30;94.00;;;;;;5031456;28;20027;-75
2022/06/16 08:35:41;;;;;;;;;;;26.60;93.80;;;;;;5031224;28;20020;-74
2022/06/16 08:38:08;;;;;;;;;;;26.50;94.10;;;;;;5031395;28;19925;-75
2022/06/16 08:40:36;;;;;;;;;;;27.00;93.90;;;;;;5034036;28;19925;-73
2022/06/16 08:43:05;;;;;;;;;;;27.40;93.50;;;;;;5035093;28;19925;-74
2022/06/16 08:45:35;;;;;;;;;;;26.90;93.50;;;;;;5034676;28;19929;-74
2022/06/16 08:48:13;;;;;;;;;;;27.50;93.30;;;;;;5034958;28;19929;-74
2022/06/16 08:50:45;;;;;;;;;;;27.80;92.50;;;;;;5034799;28;20343;-75
2022/06/16 08:53:18;;;;;;;;;;;27.90;92.80;;;;;;5034764;28;19983;-74
2022/06/16 08:55:47;;;;;;;;;;;28.30;92.20;;;;;;5034622;28;19944;-78
2022/06/16 08:58:18;;;;;;;;;;;28.50;91.80;;;;;;5034837;28;19929;-74
2022/06/16 09:00:49;;;;;;;;;;;28.80;90.90;;;;;;5034767;28;19932;-74
2022/06/16 09:03:20;;;;;;;;;;;28.50;91.40;;;;;;5034720;28;19932;-75
2022/06/16 09:05:52;;;;;;;;;;;30.10;90.00;;;;;;5034252;28;19925;-75
2022/06/16 09:08:31;;;;;;;;;;;30.30;88.60;;;;;;5034539;28;19979;-74
2022/06/16 09:11:01;;;;;;;;;;;29.60;89.60;;;;;;5034390;28;19924;-74
2022/06/16 09:13:57;;;;;;;;;;;29.20;90.00;;;;;;5035013;28;19925;-75
2022/06/16 09:16:30;;;;;;;;;;;29.50;90.10;;;;;;4999889;28;19925;-74
2022/06/16 09:19:06;;;;;;;;;;;30.50;88.00;;;;;;5034359;28;19979;-76
2022/06/16 09:21:38;;;;;;;;;;;30.80;87.40;;;;;;5034754;28;20019;-74
2022/06/16 09:24:15;;;;;;;;;;;30.90;85.40;;;;;;5034208;28;20455;-74
2022/06/16 09:26:46;;;;;;;;;;;31.20;83.90;;;;;;5034077;28;19932;-75
2022/06/16 09:29:15;;;;;;;;;;;31.10;84.40;;;;;;5034499;28;19929;-75
2022/06/16 09:31:47;;;;;;;;;;;30.20;86.20;;;;;;5034108;28;19979;-75
2022/06/16 09:34:17;;;;;;;;;;;30.10;86.40;;;;;;5034491;28;20262;-75
2022/06/16 09:36:46;;;;;;;;;;;30.70;84.90;;;;;;5033925;28;19925;-77
2022/06/16 09:39:16;;;;;;;;;;;31.40;83.40;;;;;;5033913;28;20392;-74
2022/06/16 09:44:33;;;;;;;;;;;32.00;83.10;;;;;;5033963;28;19928;-74
2022/06/16 09:47:03;;;;;;;;;;;31.50;82.60;;;;;;5033927;28;19925;-74
2022/06/16 09:49:34;;;;;;;;;;;32.40;81.30;;;;;;5033640;28;19932;-75
2022/06/16 09:52:05;;;;;;;;;;;32.80;80.70;;;;;;5033573;28;19933;-77
2022/06/16 09:54:34;;;;;;;;;;;32.40;79.90;;;;;;5034076;28;19929;-75
2022/06/16 09:57:02;;;;;;;;;;;32.80;79.40;;;;;;5033710;28;19925;-75
2022/06/16 09:59:32;;;;;;;;;;;32.50;79.80;;;;;;5033706;28;19929;-75
2022/06/16 10:02:02;;;;;;;;;;;32.80;79.30;;;;;;5033871;28;19972;-74
2022/06/16 10:04:30;;;;;;;;;;;33.00;79.80;;;;;;5033529;28;20377;-74
2022/06/16 10:06:59;;;;;;;;;;;33.00;79.00;;;;;;5033516;28;19925;-74
2022/06/16 10:09:29;;;;;;;;;;;33.40;79.30;;;;;;5033527;28;20384;-74
2022/06/16 10:12:01;;;;;;;;;;;33.80;77.10;;;;;;5033301;28;20340;-74
2022/06/16 10:14:31;;;;;;;;;;;34.60;76.10;;;;;;5033396;28;19925;-74
2022/06/16 10:16:59;;;;;;;;;;;34.50;75.80;;;;;;5033233;28;20004;-74
2022/06/16 10:19:28;;;;;;;;;;;35.00;75.70;;;;;;5033375;28;19925;-74
2022/06/16 10:21:57;;;;;;;;;;;35.30;75.10;;;;;;5033232;28;20419;-76
2022/06/16 10:24:26;;;;;;;;;;;35.00;74.80;;;;;;5033072;28;19941;-76
2022/06/16 10:26:54;;;;;;;;;;;35.10;75.20;;;;;;5033070;28;19929;-75
2022/06/16 10:29:23;;;;;;;;;;;35.30;74.20;;;;;;5032955;28;19979;-75
2022/06/16 10:31:51;;;;;;;;;;;35.30;75.20;;;;;;5033259;28;19932;-76
2022/06/16 10:34:20;;;;;;;;;;;35.60;73.10;;;;;;5032960;28;19925;-75
2022/06/16 10:36:50;;;;;;;;;;;35.60;74.40;;;;;;5032832;28;19925;-77
2022/06/16 10:39:20;;;;;;;;;;;35.50;74.50;;;;;;5032765;28;20063;-78
2022/06/16 10:41:51;;;;;;;;;;;35.60;73.00;;;;;;5032848;28;19925;-75
2022/06/16 10:44:19;;;;;;;;;;;35.40;73.50;;;;;;5032555;28;20336;-74
2022/06/16 10:46:48;;;;;;;;;;;35.30;73.10;;;;;;5032589;28;20393;-74
2022/06/16 10:49:16;;;;;;;;;;;34.70;73.20;;;;;;5032624;28;19925;-74
2022/06/16 10:51:49;;;;;;;;;;;35.50;72.80;;;;;;5032610;28;20290;-75
2022/06/16 10:54:21;;;;;;;;;;;35.70;72.50;;;;;;5032610;28;19979;-74
2022/06/16 10:56:49;;;;;;;;;;;36.60;71.80;;;;;;5032505;28;19978;-75
2022/06/16 10:59:19;;;;;;;;;;;36.00;71.20;;;;;;5032545;28;19933;-75
2022/06/16 11:01:47;;;;;;;;;;;36.50;71.40;;;;;;5031790;28;19932;-75
2022/06/16 11:04:18;;;;;;;;;;;36.00;72.60;;;;;;5032759;28;19925;-74
2022/06/16 11:06:47;;;;;;;;;;;36.60;72.20;;;;;;5032002;28;19979;-76
2022/06/16 11:09:17;;;;;;;;;;;36.10;72.30;;;;;;5032127;28;20405;-75
2022/06/16 11:11:52;;;;;;;;;;;34.90;74.90;;;;;;5032214;28;20003;-74
2022/06/16 11:14:28;;;;;;;;;;;35.10;73.00;;;;;;5032554;28;20297;-74
2022/06/16 11:16:56;;;;;;;;;;;35.10;75.10;;;;;;5031812;28;19933;-74
2022/06/16 11:19:27;;;;;;;;;;;35.00;75.20;;;;;;5032062;28;19929;-75
2022/06/16 11:21:54;;;;;;;;;;;36.10;72.40;;;;;;5032115;28;19979;-75
2022/06/16 11:24:26;;;;;;;;;;;36.00;72.30;;;;;;5032204;28;19926;-75
2022/06/16 11:26:54;;;;;;;;;;;36.10;72.20;;;;;;5032004;28;19976;-74
2022/06/16 11:29:25;;;;;;;;;;;36.40;70.40;;;;;;5032050;28;20004;-75
2022/06/16 11:32:02;;;;;;;;;;;37.10;69.70;;;;;;5032036;28;19995;-75
2022/06/16 11:34:29;;;;;;;;;;;37.00;69.10;;;;;;5032090;28;19971;-75
2022/06/16 11:37:06;;;;;;;;;;;37.20;69.30;;;;;;5031536;28;20355;-74
2022/06/16 11:39:39;;;;;;;;;;;36.90;69.20;;;;;;5031879;28;19925;-74
2022/06/16 11:42:11;;;;;;;;;;;35.80;68.90;;;;;;5031976;28;19929;-74
2022/06/16 11:44:45;;;;;;;;;;;36.50;69.40;;;;;;5046308;22;19925;-72
2022/06/16 11:47:17;;;;;;;;;;;36.90;67.50;;;;;;5032085;28;19929;-73
2022/06/16 11:49:50;;;;;;;;;;;36.80;67.60;;;;;;5032319;28;19936;-73
2022/06/16 11:52:21;;;;;;;;;;;35.00;70.40;;;;;;5031984;28;19945;-73
2022/06/16 11:54:53;;;;;;;;;;;35.80;70.50;;;;;;5031768;28;19929;-73
2022/06/16 11:57:25;;;;;;;;;;;37.20;68.20;;;;;;5032058;28;19925;-73
2022/06/16 12:00:00;;;;;;;;;;;35.70;69.50;;;;;;5031833;28;19925;-73
2022/06/16 12:02:45;;;;;;;;;;;34.70;71.30;;;;;;5031868;28;20293;-73
2022/06/16 12:05:20;;;;;;;;;;;35.00;72.00;;;;;;5031226;28;20377;-73
2022/06/16 12:08:01;;;;;;;;;;;35.20;71.60;;;;;;5031878;28;20424;-73
2022/06/16 12:10:34;;;;;;;;;;;35.60;70.30;;;;;;5031710;28;20301;-73
2022/06/16 12:13:03;;;;;;;;;;;36.30;70.10;;;;;;5032054;28;19929;-73
2022/06/16 12:15:35;;;;;;;;;;;36.50;68.50;;;;;;5035508;28;19925;-73
2022/06/16 12:18:07;;;;;;;;;;;35.80;69.70;;;;;;5035654;28;19945;-73
2022/06/16 12:20:37;;;;;;;;;;;34.40;71.40;;;;;;5035958;28;19971;-73
2022/06/16 12:23:07;;;;;;;;;;;35.70;71.40;;;;;;5035560;28;19971;-73
2022/06/16 12:25:38;;;;;;;;;;;36.90;69.30;;;;;;5035482;28;20347;-73
2022/06/16 12:28:10;;;;;;;;;;;35.80;70.20;;;;;;5035213;28;19971;-74
2022/06/16 12:30:41;;;;;;;;;;;36.10;67.90;;;;;;5035369;28;19925;-73
2022/06/16 12:33:13;;;;;;;;;;;34.90;70.00;;;;;;5035534;28;19979;-73
2022/06/16 12:35:43;;;;;;;;;;;35.80;68.40;;;;;;5035503;28;19925;-73
2022/06/16 12:38:13;;;;;;;;;;;35.50;68.70;;;;;;5035274;28;19925;-74
2022/06/16 12:40:42;;;;;;;;;;;35.30;68.30;;;;;;5035085;28;19929;-74
2022/06/16 12:43:11;;;;;;;;;;;35.90;69.10;;;;;;5035555;28;19929;-73
2022/06/16 12:45:42;;;;;;;;;;;34.50;68.10;;;;;;5035005;28;20000;-73
2022/06/16 12:48:13;;;;;;;;;;;34.10;69.20;;;;;;5035414;28;20366;-73
2022/06/16 12:50:43;;;;;;;;;;;35.20;67.70;;;;;;5035379;28;19960;-73
2022/06/16 12:53:14;;;;;;;;;;;34.10;69.40;;;;;;5035269;28;19929;-74
2022/06/16 12:55:43;;;;;;;;;;;33.70;69.50;;;;;;5035069;28;19995;-74
2022/06/16 12:58:14;;;;;;;;;;;34.00;70.20;;;;;;5034999;28;19948;-73
2022/06/16 13:00:44;;;;;;;;;;;33.40;69.80;;;;;;5035005;28;20027;-73
2022/06/16 13:03:14;;;;;;;;;;;33.60;69.70;;;;;;5034912;28;19929;-73
2022/06/16 13:05:41;;;;;;;;;;;34.50;69.60;;;;;;5034680;28;20359;-73
2022/06/16 13:08:09;;;;;;;;;;;35.20;68.70;;;;;;5034827;28;20397;-73
2022/06/16 13:10:38;;;;;;;;;;;35.00;68.40;;;;;;5034986;28;19926;-73
2022/06/16 13:13:05;;;;;;;;;;;35.50;67.70;;;;;;5034613;28;19929;-74
2022/06/16 13:15:36;;;;;;;;;;;35.60;68.20;;;;;;5034626;28;19925;-74
2022/06/16 13:18:08;;;;;;;;;;;35.40;68.50;;;;;;5034438;28;19925;-73
2022/06/16 13:20:35;;;;;;;;;;;33.00;69.30;;;;;;5034553;28;19932;-73
2022/06/16 13:23:04;;;;;;;;;;;33.00;70.90;;;;;;5034522;28;19926;-73
2022/06/16 13:25:38;;;;;;;;;;;33.40;69.20;;;;;;5033433;28;19936;-73
2022/06/16 13:28:06;;;;;;;;;;;33.20;68.10;;;;;;5034469;28;19932;-73
2022/06/16 13:30:38;;;;;;;;;;;33.90;68.50;;;;;;5034260;28;19987;-74
2022/06/16 13:33:33;;;;;;;;;;;33.40;69.10;;;;;;5034247;28;19925;-74
2022/06/16 13:36:11;;;;;;;;;;;32.00;70.70;;;;;;5034099;28;20356;-73
2022/06/16 13:38:46;;;;;;;;;;;33.30;69.70;;;;;;5034290;28;19925;-73
2022/06/16 13:41:33;;;;;;;;;;;34.40;67.70;;;;;;5034265;28;19936;-73
2022/06/16 13:44:21;;;;;;;;;;;33.40;67.40;;;;;;5034203;28;19925;-73
2022/06/16 13:47:15;;;;;;;;;;;33.60;68.00;;;;;;5028943;28;19925;-73
2022/06/16 13:49:57;;;;;;;;;;;33.20;67.60;;;;;;5034315;28;20304;-73
2022/06/16 13:52:26;;;;;;;;;;;33.30;67.20;;;;;;5033992;28;19932;-72
2022/06/16 13:55:03;;;;;;;;;;;32.80;67.40;;;;;;5033861;28;19925;-73
2022/06/16 13:57:32;;;;;;;;;;;33.30;66.30;;;;;;5034277;28;19925;-73
2022/06/16 14:00:01;;;;;;;;;;;33.30;65.60;;;;;;5034012;28;19925;-73
2022/06/16 14:02:28;;;;;;;;;;;33.50;65.20;;;;;;5033909;28;19929;-73
2022/06/16 14:05:03;;;;;;;;;;;32.80;65.00;;;;;;5033842;28;19929;-74
2022/06/16 14:07:32;;;;;;;;;;;33.80;65.00;;;;;;5034045;28;19925;-73
2022/06/16 14:10:05;;;;;;;;;;;33.80;64.50;;;;;;5033594;28;19929;-74
2022/06/16 14:12:48;;;;;;;;;;;33.40;65.00;;;;;;5033634;28;19925;-74
2022/06/16 14:15:15;;;;;;;;;;;33.20;62.10;;;;;;5033613;28;19925;-73
2022/06/16 14:17:57;;;;;;;;;;;32.60;63.40;;;;;;5033413;28;19925;-73
2022/06/16 14:20:27;;;;;;;;;;;32.30;63.50;;;;;;5032770;28;19971;-74
2022/06/16 14:22:57;;;;;;;;;;;32.50;64.00;;;;;;5033482;28;20003;-73
2022/06/16 14:25:25;;;;;;;;;;;32.90;63.10;;;;;;5033302;28;20171;-73
2022/06/16 14:27:55;;;;;;;;;;;33.40;62.80;;;;;;5033360;28;19925;-73
2022/06/16 14:30:25;;;;;;;;;;;33.20;62.50;;;;;;5033364;28;19929;-73
2022/06/16 14:32:54;;;;;;;;;;;33.90;63.80;;;;;;5032941;28;19984;-73
2022/06/16 14:35:25;;;;;;;;;;;34.00;62.40;;;;;;5032987;28;19929;-73
2022/06/16 14:37:59;;;;;;;;;;;34.40;62.10;;;;;;5033151;28;19933;-73
2022/06/16 14:40:28;;;;;;;;;;;33.50;62.10;;;;;;5033360;28;19925;-73
2022/06/16 14:42:56;;;;;;;;;;;33.30;60.60;;;;;;5032986;28;19948;-73
2022/06/16 14:45:26;;;;;;;;;;;33.50;60.40;;;;;;5032679;28;19925;-74
2022/06/16 14:47:55;;;;;;;;;;;33.60;60.30;;;;;;5033097;28;19929;-73